sensor_id;sensor_type;location;lat;lon;timestamp;temperature;humidity
5494;DHT22;2769;49.864;8.656;2022-10-10T00:01:57;14.40;99.90
5494;DHT22;2769;49.864;8.656;2022-10-10T00:04:26;14.30;99.90
5494;DHT22;2769;49.864;8.656;2022-10-10T00:06:54;14.20;99.90
5494;DHT22;2769;49.864;8.656;2022-10-10T00:09:22;14.40;99.90
5494;DHT22;2769;49.864;8.656;2022-10-10T00:11:51;14.30;99.90
5494;DHT22;2769;49.864;8.656;2022-10-10T00:14:20;14.40;99.90
5494;DHT22;2769;49.864;8.656;2022-10-10T00:16:48;14.30;99.90
5494;DHT22;2769;49.864;8.656;2022-10-10T00:19:16;14.10;99.90
5494;DHT22;2769;49.864;8.656;2022-10-10T00:21:45;14.00;99.90
5494;DHT22;2769;49.864;8.656;2022-10-10T00:24:13;14.00;99.90
5494;DHT22;2769;49.864;8.656;2022-10-10T00:26:41;14.00;99.90
5494;DHT22;2769;49.864;8.656;2022-10-10T00:29:11;14.00;99.90
5494;DHT22;2769;49.864;8.656;2022-10-10T00:31:39;14.00;99.90
5494;DHT22;2769;49.864;8.656;2022-10-10T00:34:07;14.00;99.90
5494;DHT22;2769;49.864;8.656;2022-10-10T00:36:35;13.90;99.90
5494;DHT22;2769;49.864;8.656;2022-10-10T00:39:03;14.00;99.90
5494;DHT22;2769;49.864;8.656;2022-10-10T00:41:32;14.10;99.90
5494;DHT22;2769;49.864;8.656;2022-10-10T00:44:05;14.10;99.90
5494;DHT22;2769;49.864;8.656;2022-10-10T00:46:35;14.00;99.90
5494;DHT22;2769;49.864;8.656;2022-10-10T00:49:05;14.10;99.90
5494;DHT22;2769;49.864;8.656;2022-10-10T00:51:34;14.10;99.90
5494;DHT22;2769;49.864;8.656;2022-10-10T00:54:06;14.00;99.90
5494;DHT22;2769;49.864;8.656;2022-10-10T00:56:38;14.10;99.90
5494;DHT22;2769;49.864;8.656;2022-10-10T00:59:07;13.90;99.90
5494;DHT22;2769;49.864;8.656;2022-10-10T01:01:39;13.90;99.90
5494;DHT22;2769;49.864;8.656;2022-10-10T01:04:29;14.00;99.90
5494;DHT22;2769;49.864;8.656;2022-10-10T01:06:58;13.90;99.90
5494;DHT22;2769;49.864;8.656;2022-10-10T01:09:27;13.80;99.90
5494;DHT22;2769;49.864;8.656;2022-10-10T01:12:02;13.80;99.90
5494;DHT22;2769;49.864;8.656;2022-10-10T01:14:38;13.90;99.90
5494;DHT22;2769;49.864;8.656;2022-10-10T01:17:25;14.50;99.90
5494;DHT22;2769;49.864;8.656;2022-10-10T01:20:31;14.20;99.90
5494;DHT22;2769;49.864;8.656;2022-10-10T01:23:17;14.00;99.90
5494;DHT22;2769;49.864;8.656;2022-10-10T01:25:57;14.00;99.90
5494;DHT22;2769;49.864;8.656;2022-10-10T01:28:36;13.90;99.90
5494;DHT22;2769;49.864;8.656;2022-10-10T01:31:09;13.80;99.90
5494;DHT22;2769;49.864;8.656;2022-10-10T01:33:47;13.70;99.90
5494;DHT22;2769;49.864;8.656;2022-10-10T01:36:21;13.70;99.90
5494;DHT22;2769;49.864;8.656;2022-10-10T01:38:58;13.70;99.90
5494;DHT22;2769;49.864;8.656;2022-10-10T01:41:31;13.70;99.90
5494;DHT22;2769;49.864;8.656;2022-10-10T01:44:04;13.80;99.90
5494;DHT22;2769;49.864;8.656;2022-10-10T01:46:32;13.70;99.90
5494;DHT22;2769;49.864;8.656;2022-10-10T01:49:01;13.70;99.90
5494;DHT22;2769;49.864;8.656;2022-10-10T01:51:43;13.60;99.90
5494;DHT22;2769;49.864;8.656;2022-10-10T01:54:24;13.40;99.90
5494;DHT22;2769;49.864;8.656;2022-10-10T01:57:05;13.40;99.90
5494;DHT22;2769;49.864;8.656;2022-10-10T01:59:48;13.40;99.90
5494;DHT22;2769;49.864;8.656;2022-10-10T02:02:23;13.40;99.90
5494;DHT22;2769;49.864;8.656;2022-10-10T02:04:59;13.40;99.90
5494;DHT22;2769;49.864;8.656;2022-10-10T02:07:32;13.70;99.90
5494;DHT22;2769;49.864;8.656;2022-10-10T02:10:04;13.40;99.90
5494;DHT22;2769;49.864;8.656;2022-10-10T02:12:34;13.50;99.90
5494;DHT22;2769;49.864;8.656;2022-10-10T02:15:08;13.70;99.90
5494;DHT22;2769;49.864;8.656;2022-10-10T02:17:39;13.70;99.90
5494;DHT22;2769;49.864;8.656;2022-10-10T02:20:10;13.70;99.90
5494;DHT22;2769;49.864;8.656;2022-10-10T02:22:40;13.70;99.90
5494;DHT22;2769;49.864;8.656;2022-10-10T02:25:10;13.70;99.90
5494;DHT22;2769;49.864;8.656;2022-10-10T02:27:44;13.50;99.90
5494;DHT22;2769;49.864;8.656;2022-10-10T02:30:15;12.90;99.90
5494;DHT22;2769;49.864;8.656;2022-10-10T02:32:46;13.10;99.90
5494;DHT22;2769;49.864;8.656;2022-10-10T02:35:18;13.20;99.90
5494;DHT22;2769;49.864;8.656;2022-10-10T02:37:47;13.20;99.90
5494;DHT22;2769;49.864;8.656;2022-10-10T02:40:20;13.40;99.90
5494;DHT22;2769;49.864;8.656;2022-10-10T02:42:49;13.30;99.90
5494;DHT22;2769;49.864;8.656;2022-10-10T02:45:21;13.50;99.90
5494;DHT22;2769;49.864;8.656;2022-10-10T02:47:50;14.20;99.90
5494;DHT22;2769;49.864;8.656;2022-10-10T02:50:18;13.50;99.90
5494;DHT22;2769;49.864;8.656;2022-10-10T02:52:47;13.70;99.90
5494;DHT22;2769;49.864;8.656;2022-10-10T02:55:16;14.40;99.90
5494;DHT22;2769;49.864;8.656;2022-10-10T02:57:44;13.50;99.90
5494;DHT22;2769;49.864;8.656;2022-10-10T03:00:13;13.30;99.90
5494;DHT22;2769;49.864;8.656;2022-10-10T03:02:44;13.30;99.90
5494;DHT22;2769;49.864;8.656;2022-10-10T03:05:13;13.60;99.90
5494;DHT22;2769;49.864;8.656;2022-10-10T03:07:41;13.10;99.90
5494;DHT22;2769;49.864;8.656;2022-10-10T03:10:09;13.10;99.90
5494;DHT22;2769;49.864;8.656;2022-10-10T03:12:37;13.40;99.90
5494;DHT22;2769;49.864;8.656;2022-10-10T03:15:06;13.20;99.90
5494;DHT22;2769;49.864;8.656;2022-10-10T03:17:38;13.40;99.90
5494;DHT22;2769;49.864;8.656;2022-10-10T03:20:09;13.30;99.90
5494;DHT22;2769;49.864;8.656;2022-10-10T03:22:37;13.00;99.90
5494;DHT22;2769;49.864;8.656;2022-10-10T03:25:06;12.90;99.90
5494;DHT22;2769;49.864;8.656;2022-10-10T03:27:34;13.00;99.90
5494;DHT22;2769;49.864;8.656;2022-10-10T03:30:03;13.10;99.90
5494;DHT22;2769;49.864;8.656;2022-10-10T03:32:31;13.00;99.90
5494;DHT22;2769;49.864;8.656;2022-10-10T03:34:59;13.00;99.90
5494;DHT22;2769;49.864;8.656;2022-10-10T03:37:29;13.00;99.90
5494;DHT22;2769;49.864;8.656;2022-10-10T03:39:57;13.00;99.90
5494;DHT22;2769;49.864;8.656;2022-10-10T03:42:25;13.00;99.90
5494;DHT22;2769;49.864;8.656;2022-10-10T03:44:53;13.00;99.90
5494;DHT22;2769;49.864;8.656;2022-10-10T03:47:21;13.50;99.90
5494;DHT22;2769;49.864;8.656;2022-10-10T03:49:49;13.00;99.90
5494;DHT22;2769;49.864;8.656;2022-10-10T03:52:18;13.00;99.90
5494;DHT22;2769;49.864;8.656;2022-10-10T03:54:49;13.10;99.90
5494;DHT22;2769;49.864;8.656;2022-10-10T03:57:17;13.10;99.90
5494;DHT22;2769;49.864;8.656;2022-10-10T03:59:45;13.10;99.90
5494;DHT22;2769;49.864;8.656;2022-10-10T04:02:13;13.20;99.90
5494;DHT22;2769;49.864;8.656;2022-10-10T04:04:41;13.00;99.90
5494;DHT22;2769;49.864;8.656;2022-10-10T04:07:10;13.10;99.90
5494;DHT22;2769;49.864;8.656;2022-10-10T04:09:38;13.00;99.90
5494;DHT22;2769;49.864;8.656;2022-10-10T04:12:08;13.00;99.90
5494;DHT22;2769;49.864;8.656;2022-10-10T04:14:36;13.40;99.90
5494;DHT22;2769;49.864;8.656;2022-10-10T04:17:04;13.00;99.90
5494;DHT22;2769;49.864;8.656;2022-10-10T04:19:32;13.00;99.90
5494;DHT22;2769;49.864;8.656;2022-10-10T04:22:00;13.00;99.90
5494;DHT22;2769;49.864;8.656;2022-10-10T04:24:29;13.00;99.90
5494;DHT22;2769;49.864;8.656;2022-10-10T04:26:57;13.10;99.90
5494;DHT22;2769;49.864;8.656;2022-10-10T04:29:26;13.10;99.90
5494;DHT22;2769;49.864;8.656;2022-10-10T04:31:55;13.10;99.90
5494;DHT22;2769;49.864;8.656;2022-10-10T04:34:23;13.20;99.90
5494;DHT22;2769;49.864;8.656;2022-10-10T04:36:51;13.20;99.90
5494;DHT22;2769;49.864;8.656;2022-10-10T04:39:19;13.10;99.90
5494;DHT22;2769;49.864;8.656;2022-10-10T04:41:48;13.10;99.90
5494;DHT22;2769;49.864;8.656;2022-10-10T04:44:17;13.00;99.90
5494;DHT22;2769;49.864;8.656;2022-10-10T04:46:47;13.10;99.90
5494;DHT22;2769;49.864;8.656;2022-10-10T04:49:15;13.10;99.90
5494;DHT22;2769;49.864;8.656;2022-10-10T04:51:43;13.10;99.90
5494;DHT22;2769;49.864;8.656;2022-10-10T04:54:11;13.00;99.90
5494;DHT22;2769;49.864;8.656;2022-10-10T04:56:40;12.90;99.90
5494;DHT22;2769;49.864;8.656;2022-10-10T04:59:08;12.90;99.90
5494;DHT22;2769;49.864;8.656;2022-10-10T05:01:37;12.80;99.90
5494;DHT22;2769;49.864;8.656;2022-10-10T05:04:06;12.70;99.90
5494;DHT22;2769;49.864;8.656;2022-10-10T05:06:35;12.70;99.90
5494;DHT22;2769;49.864;8.656;2022-10-10T05:09:03;12.80;99.90
5494;DHT22;2769;49.864;8.656;2022-10-10T05:11:31;12.70;99.90
5494;DHT22;2769;49.864;8.656;2022-10-10T05:13:59;12.80;99.90
5494;DHT22;2769;49.864;8.656;2022-10-10T05:16:29;12.80;99.90
5494;DHT22;2769;49.864;8.656;2022-10-10T05:18:57;13.10;99.90
5494;DHT22;2769;49.864;8.656;2022-10-10T05:21:26;13.30;99.90
5494;DHT22;2769;49.864;8.656;2022-10-10T05:23:55;12.80;99.90
5494;DHT22;2769;49.864;8.656;2022-10-10T05:26:23;12.70;99.90
5494;DHT22;2769;49.864;8.656;2022-10-10T05:28:51;12.80;99.90
5494;DHT22;2769;49.864;8.656;2022-10-10T05:31:20;12.80;99.90
5494;DHT22;2769;49.864;8.656;2022-10-10T05:33:48;12.60;99.90
5494;DHT22;2769;49.864;8.656;2022-10-10T05:36:16;12.60;99.90
5494;DHT22;2769;49.864;8.656;2022-10-10T05:38:46;12.60;99.90
5494;DHT22;2769;49.864;8.656;2022-10-10T05:41:14;12.60;99.90
5494;DHT22;2769;49.864;8.656;2022-10-10T05:43:42;12.50;99.90
5494;DHT22;2769;49.864;8.656;2022-10-10T05:46:10;12.50;99.90
5494;DHT22;2769;49.864;8.656;2022-10-10T05:48:38;12.50;99.90
5494;DHT22;2769;49.864;8.656;2022-10-10T05:51:07;12.40;99.90
5494;DHT22;2769;49.864;8.656;2022-10-10T05:53:35;12.40;99.90
5494;DHT22;2769;49.864;8.656;2022-10-10T05:56:05;12.40;99.90
5494;DHT22;2769;49.864;8.656;2022-10-10T05:58:33;12.50;99.90
5494;DHT22;2769;49.864;8.656;2022-10-10T06:01:03;12.50;99.90
5494;DHT22;2769;49.864;8.656;2022-10-10T06:03:33;12.50;99.90
5494;DHT22;2769;49.864;8.656;2022-10-10T06:06:02;12.50;99.90
5494;DHT22;2769;49.864;8.656;2022-10-10T06:08:30;12.60;99.90
5494;DHT22;2769;49.864;8.656;2022-10-10T06:11:03;12.70;99.90
5494;DHT22;2769;49.864;8.656;2022-10-10T06:13:36;12.70;99.90
5494;DHT22;2769;49.864;8.656;2022-10-10T06:16:04;12.70;99.90
5494;DHT22;2769;49.864;8.656;2022-10-10T06:18:33;12.60;99.90
5494;DHT22;2769;49.864;8.656;2022-10-10T06:21:02;12.60;99.90
5494;DHT22;2769;49.864;8.656;2022-10-10T06:23:31;12.60;99.90
5494;DHT22;2769;49.864;8.656;2022-10-10T06:25:59;12.60;99.90
5494;DHT22;2769;49.864;8.656;2022-10-10T06:28:27;12.50;99.90
5494;DHT22;2769;49.864;8.656;2022-10-10T06:31:00;12.60;99.90
5494;DHT22;2769;49.864;8.656;2022-10-10T06:33:28;12.70;99.90
5494;DHT22;2769;49.864;8.656;2022-10-10T06:35:56;12.80;99.90
5494;DHT22;2769;49.864;8.656;2022-10-10T06:38:25;12.80;99.90
5494;DHT22;2769;49.864;8.656;2022-10-10T06:40:54;13.00;99.90
5494;DHT22;2769;49.864;8.656;2022-10-10T06:43:26;12.90;99.90
5494;DHT22;2769;49.864;8.656;2022-10-10T06:45:54;12.90;99.90
5494;DHT22;2769;49.864;8.656;2022-10-10T06:48:24;12.90;99.90
5494;DHT22;2769;49.864;8.656;2022-10-10T06:50:57;13.00;99.90
5494;DHT22;2769;49.864;8.656;2022-10-10T06:53:25;13.10;99.90
5494;DHT22;2769;49.864;8.656;2022-10-10T06:55:56;13.10;99.90
5494;DHT22;2769;49.864;8.656;2022-10-10T06:58:25;13.20;99.90
5494;DHT22;2769;49.864;8.656;2022-10-10T07:00:54;13.20;99.90
5494;DHT22;2769;49.864;8.656;2022-10-10T07:03:25;13.30;99.90
5494;DHT22;2769;49.864;8.656;2022-10-10T07:05:55;13.30;99.90
5494;DHT22;2769;49.864;8.656;2022-10-10T07:08:25;13.40;99.90
5494;DHT22;2769;49.864;8.656;2022-10-10T07:10:54;13.40;99.90
5494;DHT22;2769;49.864;8.656;2022-10-10T07:13:23;13.40;99.90
5494;DHT22;2769;49.864;8.656;2022-10-10T07:15:51;13.40;99.90
5494;DHT22;2769;49.864;8.656;2022-10-10T07:18:20;13.60;99.90
5494;DHT22;2769;49.864;8.656;2022-10-10T07:20:50;13.60;99.90
5494;DHT22;2769;49.864;8.656;2022-10-10T07:23:22;13.70;99.90
5494;DHT22;2769;49.864;8.656;2022-10-10T07:25:51;13.60;99.90
5494;DHT22;2769;49.864;8.656;2022-10-10T07:28:21;13.80;99.90
5494;DHT22;2769;49.864;8.656;2022-10-10T07:30:49;13.70;99.90
5494;DHT22;2769;49.864;8.656;2022-10-10T07:33:18;13.70;99.90
5494;DHT22;2769;49.864;8.656;2022-10-10T07:35:53;13.80;99.90
5494;DHT22;2769;49.864;8.656;2022-10-10T07:38:21;14.20;99.90
5494;DHT22;2769;49.864;8.656;2022-10-10T07:40:50;14.60;99.90
5494;DHT22;2769;49.864;8.656;2022-10-10T07:43:18;14.10;99.90
5494;DHT22;2769;49.864;8.656;2022-10-10T07:45:46;14.20;99.90
5494;DHT22;2769;49.864;8.656;2022-10-10T07:48:14;14.40;99.90
5494;DHT22;2769;49.864;8.656;2022-10-10T07:50:43;14.40;99.90
5494;DHT22;2769;49.864;8.656;2022-10-10T07:53:13;14.30;99.90
5494;DHT22;2769;49.864;8.656;2022-10-10T07:55:42;14.40;99.90
5494;DHT22;2769;49.864;8.656;2022-10-10T07:58:10;14.60;99.90
5494;DHT22;2769;49.864;8.656;2022-10-10T08:00:39;14.50;99.90
5494;DHT22;2769;49.864;8.656;2022-10-10T08:03:08;14.30;99.90
5494;DHT22;2769;49.864;8.656;2022-10-10T08:05:39;14.40;99.90
5494;DHT22;2769;49.864;8.656;2022-10-10T08:08:09;14.50;99.90
5494;DHT22;2769;49.864;8.656;2022-10-10T08:10:42;14.80;99.90
5494;DHT22;2769;49.864;8.656;2022-10-10T08:13:10;14.90;99.90
5494;DHT22;2769;49.864;8.656;2022-10-10T08:15:38;15.00;99.90
5494;DHT22;2769;49.864;8.656;2022-10-10T08:18:07;14.90;99.90
5494;DHT22;2769;49.864;8.656;2022-10-10T08:20:35;14.60;99.90
5494;DHT22;2769;49.864;8.656;2022-10-10T08:23:03;14.70;99.90
5494;DHT22;2769;49.864;8.656;2022-10-10T08:25:31;14.60;99.90
5494;DHT22;2769;49.864;8.656;2022-10-10T08:28:01;14.50;99.90
5494;DHT22;2769;49.864;8.656;2022-10-10T08:30:29;15.00;99.90
5494;DHT22;2769;49.864;8.656;2022-10-10T08:32:57;15.10;99.90
5494;DHT22;2769;49.864;8.656;2022-10-10T08:35:25;15.30;99.90
5494;DHT22;2769;49.864;8.656;2022-10-10T08:37:53;15.30;99.90
5494;DHT22;2769;49.864;8.656;2022-10-10T08:40:22;15.30;99.90
5494;DHT22;2769;49.864;8.656;2022-10-10T08:42:56;15.50;99.90
5494;DHT22;2769;49.864;8.656;2022-10-10T08:45:27;15.60;99.90
5494;DHT22;2769;49.864;8.656;2022-10-10T08:47:58;15.70;99.90
5494;DHT22;2769;49.864;8.656;2022-10-10T08:50:30;15.50;99.90
5494;DHT22;2769;49.864;8.656;2022-10-10T08:53:02;15.70;99.90
5494;DHT22;2769;49.864;8.656;2022-10-10T08:55:34;15.90;99.90
5494;DHT22;2769;49.864;8.656;2022-10-10T08:58:09;15.90;99.90
5494;DHT22;2769;49.864;8.656;2022-10-10T09:00:44;15.70;99.90
5494;DHT22;2769;49.864;8.656;2022-10-10T09:03:20;15.60;99.90
5494;DHT22;2769;49.864;8.656;2022-10-10T09:06:03;15.60;99.90
5494;DHT22;2769;49.864;8.656;2022-10-10T09:08:42;15.80;99.90
5494;DHT22;2769;49.864;8.656;2022-10-10T09:11:26;16.10;99.90
5494;DHT22;2769;49.864;8.656;2022-10-10T09:14:05;16.30;99.90
5494;DHT22;2769;49.864;8.656;2022-10-10T09:16:46;16.20;99.90
5494;DHT22;2769;49.864;8.656;2022-10-10T09:19:28;16.20;99.90
5494;DHT22;2769;49.864;8.656;2022-10-10T09:22:00;16.40;99.90
5494;DHT22;2769;49.864;8.656;2022-10-10T09:24:32;16.50;99.90
5494;DHT22;2769;49.864;8.656;2022-10-10T09:27:12;16.40;99.90
5494;DHT22;2769;49.864;8.656;2022-10-10T09:29:45;16.20;99.90
5494;DHT22;2769;49.864;8.656;2022-10-10T09:32:18;16.60;99.90
5494;DHT22;2769;49.864;8.656;2022-10-10T09:34:51;17.10;99.90
5494;DHT22;2769;49.864;8.656;2022-10-10T09:37:23;17.00;99.90
5494;DHT22;2769;49.864;8.656;2022-10-10T09:40:19;17.10;99.90
5494;DHT22;2769;49.864;8.656;2022-10-10T09:42:49;16.90;99.90
5494;DHT22;2769;49.864;8.656;2022-10-10T09:45:20;17.20;99.90
5494;DHT22;2769;49.864;8.656;2022-10-10T09:47:54;17.60;99.90
5494;DHT22;2769;49.864;8.656;2022-10-10T09:50:24;18.00;99.90
5494;DHT22;2769;49.864;8.656;2022-10-10T09:52:55;18.50;99.90
5494;DHT22;2769;49.864;8.656;2022-10-10T09:55:27;18.60;99.90
5494;DHT22;2769;49.864;8.656;2022-10-10T09:58:01;18.00;99.90
5494;DHT22;2769;49.864;8.656;2022-10-10T10:00:35;18.10;99.90
5494;DHT22;2769;49.864;8.656;2022-10-10T10:03:14;18.70;99.90
5494;DHT22;2769;49.864;8.656;2022-10-10T10:05:45;19.00;99.90
5494;DHT22;2769;49.864;8.656;2022-10-10T10:08:21;19.50;99.90
5494;DHT22;2769;49.864;8.656;2022-10-10T10:10:51;20.40;99.90
5494;DHT22;2769;49.864;8.656;2022-10-10T10:13:27;20.60;99.90
5494;DHT22;2769;49.864;8.656;2022-10-10T10:16:03;21.30;99.90
5494;DHT22;2769;49.864;8.656;2022-10-10T10:18:39;21.80;99.90
5494;DHT22;2769;49.864;8.656;2022-10-10T10:21:12;22.10;99.90
5494;DHT22;2769;49.864;8.656;2022-10-10T10:23:42;22.60;99.90
5494;DHT22;2769;49.864;8.656;2022-10-10T10:26:22;22.50;99.90
5494;DHT22;2769;49.864;8.656;2022-10-10T10:29:01;22.90;99.90
5494;DHT22;2769;49.864;8.656;2022-10-10T10:31:53;23.00;99.90
5494;DHT22;2769;49.864;8.656;2022-10-10T10:34:46;23.10;99.90
5494;DHT22;2769;49.864;8.656;2022-10-10T10:37:21;22.20;99.90
5494;DHT22;2769;49.864;8.656;2022-10-10T10:40:09;22.20;99.90
5494;DHT22;2769;49.864;8.656;2022-10-10T10:42:58;23.10;99.90
5494;DHT22;2769;49.864;8.656;2022-10-10T10:45:36;23.70;99.90
5494;DHT22;2769;49.864;8.656;2022-10-10T10:48:18;24.00;99.90
5494;DHT22;2769;49.864;8.656;2022-10-10T10:50:53;23.70;99.90
5494;DHT22;2769;49.864;8.656;2022-10-10T10:53:28;23.40;99.90
5494;DHT22;2769;49.864;8.656;2022-10-10T10:56:06;23.40;99.90
5494;DHT22;2769;49.864;8.656;2022-10-10T10:59:08;24.30;99.90
5494;DHT22;2769;49.864;8.656;2022-10-10T11:02:10;24.60;99.90
5494;DHT22;2769;49.864;8.656;2022-10-10T11:05:22;24.70;99.90
5494;DHT22;2769;49.864;8.656;2022-10-10T11:08:23;24.50;99.90
5494;DHT22;2769;49.864;8.656;2022-10-10T11:11:04;24.50;99.90
5494;DHT22;2769;49.864;8.656;2022-10-10T11:13:46;25.00;99.90
5494;DHT22;2769;49.864;8.656;2022-10-10T11:16:21;24.80;99.90
5494;DHT22;2769;49.864;8.656;2022-10-10T11:19:17;24.70;99.90
5494;DHT22;2769;49.864;8.656;2022-10-10T11:21:54;24.90;99.90
5494;DHT22;2769;49.864;8.656;2022-10-10T11:24:31;24.80;99.90
5494;DHT22;2769;49.864;8.656;2022-10-10T11:27:05;25.00;99.90
5494;DHT22;2769;49.864;8.656;2022-10-10T11:29:48;24.70;99.90
5494;DHT22;2769;49.864;8.656;2022-10-10T11:32:22;24.60;99.90
5494;DHT22;2769;49.864;8.656;2022-10-10T11:35:02;24.50;99.90
5494;DHT22;2769;49.864;8.656;2022-10-10T11:37:37;23.70;99.90
5494;DHT22;2769;49.864;8.656;2022-10-10T11:40:35;23.40;99.90
5494;DHT22;2769;49.864;8.656;2022-10-10T11:43:14;22.80;99.90
5494;DHT22;2769;49.864;8.656;2022-10-10T11:45:45;22.50;99.90
5494;DHT22;2769;49.864;8.656;2022-10-10T11:48:26;22.20;99.90
5494;DHT22;2769;49.864;8.656;2022-10-10T11:51:00;21.90;99.90
5494;DHT22;2769;49.864;8.656;2022-10-10T11:53:35;21.90;99.90
5494;DHT22;2769;49.864;8.656;2022-10-10T11:56:12;22.20;99.90
5494;DHT22;2769;49.864;8.656;2022-10-10T11:58:43;21.80;99.90
5494;DHT22;2769;49.864;8.656;2022-10-10T12:01:18;21.80;99.90
5494;DHT22;2769;49.864;8.656;2022-10-10T12:03:49;22.20;99.90
5494;DHT22;2769;49.864;8.656;2022-10-10T12:06:21;22.40;99.90
5494;DHT22;2769;49.864;8.656;2022-10-10T12:08:58;22.50;99.90
5494;DHT22;2769;49.864;8.656;2022-10-10T12:11:34;22.80;99.90
5494;DHT22;2769;49.864;8.656;2022-10-10T12:14:07;23.20;99.90
5494;DHT22;2769;49.864;8.656;2022-10-10T12:16:36;23.00;99.90
5494;DHT22;2769;49.864;8.656;2022-10-10T12:19:07;23.50;99.90
5494;DHT22;2769;49.864;8.656;2022-10-10T12:21:58;23.60;99.90
5494;DHT22;2769;49.864;8.656;2022-10-10T12:24:28;23.70;99.90
5494;DHT22;2769;49.864;8.656;2022-10-10T12:27:40;24.00;99.90
5494;DHT22;2769;49.864;8.656;2022-10-10T12:30:19;24.00;99.90
5494;DHT22;2769;49.864;8.656;2022-10-10T12:32:47;24.20;99.90
5494;DHT22;2769;49.864;8.656;2022-10-10T12:35:41;24.70;99.90
5494;DHT22;2769;49.864;8.656;2022-10-10T12:38:21;25.30;99.90
5494;DHT22;2769;49.864;8.656;2022-10-10T12:41:12;25.70;99.90
5494;DHT22;2769;49.864;8.656;2022-10-10T12:44:16;26.30;99.90
5494;DHT22;2769;49.864;8.656;2022-10-10T12:46:42;26.30;99.90
5494;DHT22;2769;49.864;8.656;2022-10-10T12:49:17;26.70;99.90
5494;DHT22;2769;49.864;8.656;2022-10-10T12:52:03;26.60;99.90
5494;DHT22;2769;49.864;8.656;2022-10-10T12:54:37;26.30;99.90
5494;DHT22;2769;49.864;8.656;2022-10-10T12:57:15;27.80;99.90
5494;DHT22;2769;49.864;8.656;2022-10-10T12:59:46;28.60;99.10
5494;DHT22;2769;49.864;8.656;2022-10-10T13:02:19;28.80;97.40
5494;DHT22;2769;49.864;8.656;2022-10-10T13:04:51;28.90;96.70
5494;DHT22;2769;49.864;8.656;2022-10-10T13:07:22;27.80;97.30
5494;DHT22;2769;49.864;8.656;2022-10-10T13:09:53;27.80;96.50
5494;DHT22;2769;49.864;8.656;2022-10-10T13:12:24;28.60;96.00
5494;DHT22;2769;49.864;8.656;2022-10-10T13:14:55;28.70;95.90
5494;DHT22;2769;49.864;8.656;2022-10-10T13:17:26;28.00;96.40
5494;DHT22;2769;49.864;8.656;2022-10-10T13:19:56;27.60;96.80
5494;DHT22;2769;49.864;8.656;2022-10-10T13:22:26;26.80;97.40
5494;DHT22;2769;49.864;8.656;2022-10-10T13:24:54;27.00;97.50
5494;DHT22;2769;49.864;8.656;2022-10-10T13:27:24;27.60;96.50
5494;DHT22;2769;49.864;8.656;2022-10-10T13:29:55;27.50;96.20
5494;DHT22;2769;49.864;8.656;2022-10-10T13:32:26;25.80;98.30
5494;DHT22;2769;49.864;8.656;2022-10-10T13:34:57;25.70;99.60
5494;DHT22;2769;49.864;8.656;2022-10-10T13:37:27;25.30;99.90
5494;DHT22;2769;49.864;8.656;2022-10-10T13:39:56;25.50;99.90
5494;DHT22;2769;49.864;8.656;2022-10-10T13:42:35;25.40;99.90
5494;DHT22;2769;49.864;8.656;2022-10-10T13:48:19;26.90;98.70
5494;DHT22;2769;49.864;8.656;2022-10-10T13:51:05;26.60;99.00
5494;DHT22;2769;49.864;8.656;2022-10-10T13:53:49;26.90;99.30
5494;DHT22;2769;49.864;8.656;2022-10-10T13:56:36;27.00;98.50
5494;DHT22;2769;49.864;8.656;2022-10-10T13:59:11;27.10;98.10
5494;DHT22;2769;49.864;8.656;2022-10-10T14:01:41;26.70;98.80
5494;DHT22;2769;49.864;8.656;2022-10-10T14:04:19;26.40;99.30
5494;DHT22;2769;49.864;8.656;2022-10-10T14:06:55;25.80;98.50
5494;DHT22;2769;49.864;8.656;2022-10-10T14:09:29;26.90;98.80
5494;DHT22;2769;49.864;8.656;2022-10-10T14:12:01;27.50;98.70
5494;DHT22;2769;49.864;8.656;2022-10-10T14:14:39;28.10;97.10
5494;DHT22;2769;49.864;8.656;2022-10-10T14:17:09;28.80;95.50
5494;DHT22;2769;49.864;8.656;2022-10-10T14:19:39;28.80;94.80
5494;DHT22;2769;49.864;8.656;2022-10-10T14:22:08;28.50;94.80
5494;DHT22;2769;49.864;8.656;2022-10-10T14:24:36;27.40;96.60
5494;DHT22;2769;49.864;8.656;2022-10-10T14:27:11;27.40;96.70
5494;DHT22;2769;49.864;8.656;2022-10-10T14:29:40;27.20;97.40
5494;DHT22;2769;49.864;8.656;2022-10-10T14:32:09;26.60;98.10
5494;DHT22;2769;49.864;8.656;2022-10-10T14:34:40;26.50;98.10
5494;DHT22;2769;49.864;8.656;2022-10-10T14:37:15;26.20;98.40
5494;DHT22;2769;49.864;8.656;2022-10-10T14:39:45;25.90;99.50
5494;DHT22;2769;49.864;8.656;2022-10-10T14:42:15;26.10;99.90
5494;DHT22;2769;49.864;8.656;2022-10-10T14:44:44;25.80;99.90
5494;DHT22;2769;49.864;8.656;2022-10-10T14:47:15;25.40;99.90
5494;DHT22;2769;49.864;8.656;2022-10-10T14:49:45;24.70;99.90
5494;DHT22;2769;49.864;8.656;2022-10-10T14:52:13;24.40;99.90
5494;DHT22;2769;49.864;8.656;2022-10-10T14:54:42;24.20;99.90
5494;DHT22;2769;49.864;8.656;2022-10-10T14:57:11;24.10;99.90
5494;DHT22;2769;49.864;8.656;2022-10-10T14:59:40;23.80;99.90
5494;DHT22;2769;49.864;8.656;2022-10-10T15:02:16;23.70;99.90
5494;DHT22;2769;49.864;8.656;2022-10-10T15:04:46;24.30;99.90
5494;DHT22;2769;49.864;8.656;2022-10-10T15:07:15;24.80;99.90
5494;DHT22;2769;49.864;8.656;2022-10-10T15:09:45;25.40;99.90
5494;DHT22;2769;49.864;8.656;2022-10-10T15:12:35;25.10;99.90
5494;DHT22;2769;49.864;8.656;2022-10-10T15:15:05;24.70;99.90
5494;DHT22;2769;49.864;8.656;2022-10-10T15:17:34;24.80;99.90
5494;DHT22;2769;49.864;8.656;2022-10-10T15:20:06;24.80;99.90
5494;DHT22;2769;49.864;8.656;2022-10-10T15:22:35;24.80;99.90
5494;DHT22;2769;49.864;8.656;2022-10-10T15:25:05;24.60;99.90
5494;DHT22;2769;49.864;8.656;2022-10-10T15:27:34;24.90;99.90
5494;DHT22;2769;49.864;8.656;2022-10-10T15:30:04;25.00;99.90
5494;DHT22;2769;49.864;8.656;2022-10-10T15:32:32;24.80;99.90
5494;DHT22;2769;49.864;8.656;2022-10-10T15:35:00;25.40;99.90
5494;DHT22;2769;49.864;8.656;2022-10-10T15:37:30;25.40;99.90
5494;DHT22;2769;49.864;8.656;2022-10-10T15:39:58;25.30;99.90
5494;DHT22;2769;49.864;8.656;2022-10-10T15:42:27;24.90;99.90
5494;DHT22;2769;49.864;8.656;2022-10-10T15:44:55;25.00;99.90
5494;DHT22;2769;49.864;8.656;2022-10-10T15:47:23;24.90;99.90
5494;DHT22;2769;49.864;8.656;2022-10-10T15:49:51;24.60;99.90
5494;DHT22;2769;49.864;8.656;2022-10-10T15:52:19;24.20;99.90
5494;DHT22;2769;49.864;8.656;2022-10-10T15:54:50;23.70;99.90
5494;DHT22;2769;49.864;8.656;2022-10-10T15:57:19;23.70;99.90
5494;DHT22;2769;49.864;8.656;2022-10-10T15:59:48;23.50;99.90
5494;DHT22;2769;49.864;8.656;2022-10-10T16:02:17;23.40;99.90
5494;DHT22;2769;49.864;8.656;2022-10-10T16:04:45;23.40;99.90
5494;DHT22;2769;49.864;8.656;2022-10-10T16:07:13;23.40;99.90
5494;DHT22;2769;49.864;8.656;2022-10-10T16:10:03;23.30;99.90
5494;DHT22;2769;49.864;8.656;2022-10-10T16:12:32;23.10;99.90
5494;DHT22;2769;49.864;8.656;2022-10-10T16:15:00;23.00;99.90
5494;DHT22;2769;49.864;8.656;2022-10-10T16:17:33;22.80;99.90
5494;DHT22;2769;49.864;8.656;2022-10-10T16:20:01;22.60;99.90
5494;DHT22;2769;49.864;8.656;2022-10-10T16:22:29;22.40;99.90
5494;DHT22;2769;49.864;8.656;2022-10-10T16:24:58;22.20;99.90
5494;DHT22;2769;49.864;8.656;2022-10-10T16:27:47;22.10;99.90
5494;DHT22;2769;49.864;8.656;2022-10-10T16:30:16;22.00;99.90
5494;DHT22;2769;49.864;8.656;2022-10-10T16:32:45;21.90;99.90
5494;DHT22;2769;49.864;8.656;2022-10-10T16:35:14;21.70;99.90
5494;DHT22;2769;49.864;8.656;2022-10-10T16:37:42;21.60;99.90
5494;DHT22;2769;49.864;8.656;2022-10-10T16:40:11;21.50;99.90